Latest Weather Observations for Cape Sorell

IDT60801

Issued at 10:32 am EST Sunday 31 July 2016 (issued every 30 minutes, with the page automatically refreshed every 10 minutes)

About weather observations | Map of weather stations | Latest weather observations for TAS | Other Formats
Station Details ID: 097000 Name: CAPE SORELL Lat: -42.20 Lon: 145.17 Height: 19.3 m
Data from the previous 72 hours. | See also: Recent months at Cape Sorell
Date/Time
EST
Temp
°C
App
Temp
°C
Dew
Point
°C
Rel
Hum
%
Delta-T
°C
Wind Press
QNH
hPa
Press
MSL
hPa
Rain since
9am
mm
Dir  Spd
km/h
Gust
km/h
Spd
kts
Gust
kts
31/10:30am 12.2 7.6 6.7 69 2.6 WSW 20 28 11 15 1011.0 1011.1 0.0
31/10:00am 11.5 5.0 6.4 71 2.4 WSW 30 37 16 20 1010.5 1010.6 0.0
31/09:30am 11.2 4.0 6.1 71 2.4 WSW 33 44 18 24 1010.1 1010.2 0.0
31/09:00am 11.1 3.2 6.0 71 2.4 WSW 37 43 20 23 1009.7 1009.8 4.6
31/08:30am 11.1 2.9 6.5 73 2.2 WSW 39 48 21 26 1009.1 1009.2 4.6
31/08:00am 10.8 2.2 6.6 75 2.0 WSW 41 46 22 25 1008.4 1008.5 4.6
31/07:30am 10.9 2.0 7.0 77 1.9 WSW 43 54 23 29 1007.6 1007.7 4.6
31/07:00am 10.5 1.4 6.8 78 1.8 WSW 44 56 24 30 1007.0 1007.1 4.6
31/06:30am 10.6 2.7 7.7 82 1.4 WSW 39 54 21 29 1006.4 1006.5 4.6
31/06:00am 9.9 1.1 7.3 84 1.2 WSW 43 57 23 31 1005.6 1005.7 4.6
31/05:39am 9.5 0.6 6.9 84 1.2 WSW 43 61 23 33 1005.8 1005.9 4.4
31/05:30am 9.8 1.3 6.9 82 1.4 WSW 41 59 22 32 1005.6 1005.7 4.0
31/05:27am 10.4 2.7 7.3 81 1.5 W 37 59 20 32 1005.3 1005.4 4.0
31/05:00am 10.6 3.8 7.8 83 1.4 W 33 44 18 24 1005.3 1005.4 4.0
31/04:30am 10.1 2.1 7.3 83 1.3 WNW 39 52 21 28 1004.8 1004.9 4.0
31/04:00am 9.8 2.5 7.2 84 1.2 W 35 57 19 31 1005.0 1005.1 3.8
31/03:56am 9.7 1.6 7.0 83 1.3 WSW 39 57 21 31 1005.0 1005.1 3.8
31/03:46am 10.6 3.4 7.5 81 1.5 W 35 50 19 27 1004.7 1004.8 3.2
31/03:30am 11.1 4.4 8.1 82 1.5 W 33 46 18 25 1004.8 1004.9 3.2
31/03:00am 11.4 4.6 7.9 79 1.7 W 33 57 18 31 1004.5 1004.6 2.6
31/02:36am 11.5 4.4 8.2 80 1.6 W 35 54 19 29 1004.8 1004.9 2.6
31/02:30am 11.4 3.6 8.3 81 1.5 W 39 54 21 29 1004.8 1004.9 2.6
31/02:00am 11.7 4.4 8.7 82 1.5 WNW 37 50 20 27 1004.9 1005.0 2.6
31/01:30am 11.9 4.7 9.1 83 1.4 WNW 37 48 20 26 1004.6 1004.7 2.6
31/01:00am 11.7 4.5 9.3 85 1.2 W 37 56 20 30 1003.9 1004.0 2.6
31/12:35am 11.7 3.5 9.8 88 1.0 WNW 43 61 23 33 1003.1 1003.2 2.6
31/12:30am 11.9 4.2 10.0 88 1.0 WNW 41 56 22 30 1003.3 1003.4 2.4
31/12:15am 11.9 3.6 10.1 89 0.9 WNW 44 57 24 31 1002.9 1002.9 2.4
31/12:00am 12.1 1.6 10.3 89 0.9 NNW 56 76 30 41 1002.5 1002.5 2.4
 
Date/Time
EST
Temp
°C
App
Temp
°C
Dew
Point
°C
Rel
Hum
%
Delta-T
°C
Wind Press
QNH
hPa
Press
MSL
hPa
Rain since
9am
mm
Dir  Spd
km/h
Gust
km/h
Spd
kts
Gust
kts
30/11:59pm 12.1 1.4 10.3 89 0.9 NNW 57 76 31 41 1002.5 1002.5 2.4
30/11:30pm 12.1 0.9 10.0 87 1.1 N 59 80 32 43 1000.8 1000.8 1.4
30/11:15pm 12.1 0.9 9.8 86 1.2 N 59 78 32 42 1001.4 1001.4 1.0
30/11:00pm 12.0 0.8 9.7 86 1.2 N 59 74 32 40 1001.5 1001.5 1.0
30/10:30pm 11.5 0.4 8.9 84 1.3 N 57 69 31 37 1002.0 1002.0 0.6
30/10:00pm 12.3 0.8 8.6 78 1.8 N 59 76 32 41 1002.4 1002.4 0.0
30/09:34pm 12.7 1.6 8.8 77 2.0 N 57 78 31 42 1002.5 1002.5 0.0
30/09:30pm 12.6 1.7 8.9 78 1.9 N 56 72 30 39 1002.6 1002.6 0.0
30/09:00pm 11.9 2.5 8.6 80 1.6 NNE 48 57 26 31 1003.4 1003.5 0.0
30/08:30pm 12.2 2.1 8.9 80 1.7 N 52 70 28 38 1004.0 1004.1 0.0
30/08:00pm 11.7 2.2 8.2 79 1.7 NNE 48 57 26 31 1004.3 1004.4 0.0
30/07:30pm 11.5 2.7 8.0 79 1.7 NNE 44 56 24 30 1005.2 1005.3 0.0
30/07:00pm 11.5 2.3 7.8 78 1.8 NNE 46 56 25 30 1006.2 1006.3 0.0
30/06:30pm 11.5 3.3 8.0 79 1.7 NNE 41 52 22 28 1006.5 1006.6 0.0
30/06:00pm 11.8 1.9 8.3 79 1.7 NNE 50 59 27 32 1006.3 1006.4 0.0
30/05:30pm 11.8 2.0 8.5 80 1.6 N 50 59 27 32 1007.4 1007.5 0.0
30/05:00pm 11.9 3.4 8.6 80 1.6 N 43 63 23 34 1008.1 1008.2 0.0
30/04:59pm 11.9 3.4 8.6 80 1.6 N 43 63 23 34 1008.1 1008.2 0.0
30/04:30pm 11.2 3.2 7.5 78 1.8 NNE 39 46 21 25 1008.3 1008.4 0.0
30/04:00pm 11.2 2.2 7.1 76 2.0 NNE 44 52 24 28 1008.8 1008.9 0.0
30/03:30pm 10.7 3.3 6.8 77 1.8 NNE 35 43 19 23 1009.4 1009.5 0.0
30/03:00pm 11.0 3.2 6.6 74 2.1 NNE 37 44 20 24 1010.1 1010.2 0.0
30/02:30pm 11.0 3.1 6.4 73 2.2 NNE 37 44 20 24 1010.4 1010.5 0.0
30/02:00pm 10.6 3.4 6.0 73 2.1 NNE 33 39 18 21 1011.4 1011.5 0.0
30/01:30pm 10.6 3.3 5.6 71 2.3 NNE 33 39 18 21 1011.9 1012.0 0.0
30/01:00pm 10.6 3.9 5.4 70 2.4 NNE 30 37 16 20 1012.9 1013.0 0.0
30/12:30pm 10.5 3.1 5.1 69 2.5 NNE 33 39 18 21 1013.6 1013.7 0.0
30/12:00pm 9.8 3.2 4.4 69 2.4 NNE 28 33 15 18 1014.5 1014.6 0.0
30/11:30am 9.8 3.3 4.6 70 2.3 NE 28 32 15 17 1015.3 1015.4 0.0
30/11:00am 9.5 2.5 4.1 69 2.4 NNE 30 35 16 19 1016.4 1016.4 0.0
30/10:30am 9.2 1.8 4.0 70 2.3 NNE 32 37 17 20 1016.5 1016.5 0.0
30/10:00am 8.8 1.8 4.0 72 2.1 NNE 30 35 16 19 1016.7 1016.7 0.0
30/09:30am 8.6 1.7 4.4 75 1.8 NNE 30 33 16 18 1016.9 1016.9 0.0
30/09:00am 8.4 3.0 4.6 77 1.7 NE 22 28 12 15 1017.1 1017.1 3.4
30/08:30am 8.1 2.7 4.5 78 1.6 NE 22 24 12 13 1017.5 1017.5 3.4
30/08:00am 8.1 3.6 4.3 77 1.7 NE 17 22 9 12 1017.6 1017.6 3.4
30/07:30am 8.5 4.1 4.5 76 1.8 NNE 17 20 9 11 1017.7 1017.7 3.4
30/07:00am 8.5 4.1 4.9 78 1.6 NE 17 20 9 11 1017.7 1017.7 3.4
30/06:30am 8.4 4.9 5.3 81 1.4 NE 13 15 7 8 1017.8 1017.8 3.4
30/06:00am 7.4 4.9 4.9 84 1.1 ENE 7 13 4 7 1017.9 1017.9 3.4
30/05:30am 7.3 4.8 5.0 85 1.0 E 7 13 4 7 1018.1 1018.1 3.4
30/05:00am 7.6 4.4 5.2 85 1.1 NE 11 15 6 8 1018.1 1018.1 3.4
30/04:30am 7.2 4.0 4.9 85 1.0 ENE 11 13 6 7 1018.0 1018.0 3.4
30/04:00am 8.0 4.9 5.5 84 1.1 NE 11 13 6 7 1018.2 1018.2 3.4
30/03:30am 7.8 5.0 5.3 84 1.1 NNE 9 13 5 7 1018.6 1018.6 3.4
30/03:00am 7.0 4.5 4.5 84 1.1 NE 7 9 4 5 1018.6 1018.6 3.4
30/02:30am 6.8 3.8 4.1 83 1.2 ENE 9 11 5 6 1018.7 1018.7 3.4
30/02:00am 6.9 3.5 3.9 81 1.3 ENE 11 13 6 7 1018.5 1018.5 3.4
30/01:30am 7.1 3.5 3.0 75 1.7 E 11 15 6 8 1018.4 1018.4 3.4
30/01:00am 8.6 5.2 3.8 72 2.1 SSW 11 17 6 9 1018.3 1018.3 3.4
30/12:30am 8.7 3.8 3.9 72 2.1 SW 19 20 10 11 1018.3 1018.3 3.4
30/12:00am 8.9 3.5 4.3 73 2.0 SW 22 28 12 15 1018.5 1018.5 3.4
 
Date/Time
EST
Temp
°C
App
Temp
°C
Dew
Point
°C
Rel
Hum
%
Delta-T
°C
Wind Press
QNH
hPa
Press
MSL
hPa
Rain since
9am
mm
Dir  Spd
km/h
Gust
km/h
Spd
kts
Gust
kts
29/11:30pm 9.2 3.9 4.8 74 2.0 SSW 22 26 12 14 1018.5 1018.5 3.4
29/11:00pm 9.1 2.6 4.5 73 2.0 SW 28 33 15 18 1018.3 1018.3 3.4
29/10:30pm 9.3 2.1 5.1 75 1.9 SW 32 35 17 19 1018.0 1018.0 3.4
29/10:00pm 9.3 3.3 5.3 76 1.8 SW 26 33 14 18 1017.8 1017.8 3.4
29/09:30pm 8.6 3.3 5.2 79 1.5 SW 22 30 12 16 1017.7 1017.7 3.4
29/09:00pm 8.4 -0.1 5.3 81 1.4 SW 39 46 21 25 1017.5 1017.5 3.4
29/08:36pm 9.7 3.0 5.7 76 1.8 SW 30 50 16 27 1016.8 1016.8 3.4
29/08:30pm 9.2 3.1 5.0 75 1.9 SW 26 32 14 17 1017.1 1017.1 3.4
29/08:00pm 9.1 3.9 5.3 77 1.7 SSW 22 28 12 15 1016.8 1016.8 3.4
29/07:30pm 8.7 2.3 5.3 79 1.5 SSW 28 37 15 20 1016.5 1016.5 3.4
29/07:05pm 9.9 2.6 5.3 73 2.1 SW 33 52 18 28 1015.6 1015.7 3.4
29/07:00pm 9.7 2.5 5.1 73 2.1 SW 32 39 17 21 1015.6 1015.7 3.4
29/06:30pm 9.6 0.8 5.6 76 1.8 SW 41 48 22 26 1015.0 1015.1 3.4
29/06:00pm 9.8 0.5 6.0 77 1.8 SW 44 56 24 30 1014.4 1014.5 3.4
29/05:30pm 9.8 0.6 6.5 80 1.5 SW 44 54 24 29 1013.6 1013.7 3.4
29/05:00pm 9.9 -0.6 7.3 84 1.2 SW 52 65 28 35 1012.7 1012.8 3.4
29/04:38pm 9.8 1.1 7.7 87 1.0 SW 43 61 23 33 1012.4 1012.5 3.4
29/04:30pm 9.7 0.0 7.5 86 1.0 SW 48 61 26 33 1011.9 1012.0 3.2
29/04:00pm 10.2 -0.1 8.3 88 0.9 SW 52 63 28 34 1011.5 1011.6 3.2
29/03:30pm 10.9 1.6 9.0 88 0.9 WSW 48 56 26 30 1010.9 1011.0 3.2
29/03:13pm 10.9 2.5 9.0 88 0.9 W 43 65 23 35 1010.2 1010.3 3.2
29/03:00pm 11.1 3.2 9.2 88 1.0 WSW 41 56 22 30 1010.3 1010.4 3.0
29/02:30pm 11.1 3.3 8.3 83 1.4 W 39 52 21 28 1010.1 1010.2 2.0
29/02:00pm 11.9 3.5 8.9 82 1.5 W 43 57 23 31 1009.9 1010.0 1.6
29/01:30pm 11.7 4.1 9.1 84 1.3 W 39 52 21 28 1010.0 1010.1 1.6
29/01:00pm 11.3 4.4 9.0 86 1.1 W 35 48 19 26 1010.1 1010.2 1.4
29/12:30pm 11.4 3.7 8.6 83 1.4 W 39 48 21 26 1010.4 1010.5 1.2
29/12:00pm 11.8 4.5 8.6 81 1.6 W 37 50 20 27 1010.7 1010.8 1.2
29/11:30am 11.5 4.6 8.9 84 1.3 W 35 63 19 34 1010.7 1010.8 1.2
29/11:29am 11.4 4.9 8.8 84 1.3 W 33 63 18 34 1010.7 1010.8 1.2
29/11:00am 11.1 3.9 9.0 87 1.0 W 37 52 20 28 1010.8 1010.9 1.2
29/10:30am 10.8 3.9 8.7 87 1.0 WNW 35 70 19 38 1010.7 1010.8 1.0
29/10:29am 11.2 4.7 9.1 87 1.0 WNW 33 61 18 33 1010.9 1011.0 1.0
29/10:00am 11.0 4.5 9.1 88 0.9 WNW 33 46 18 25 1010.8 1010.9 1.0
29/09:30am 10.7 3.3 8.3 85 1.2 WNW 37 52 20 28 1011.0 1011.1 0.0
29/09:23am 11.2 4.9 8.8 85 1.2 WNW 32 52 17 28 1010.7 1010.8 0.0
29/09:00am 10.9 4.9 8.8 87 1.0 WNW 30 43 16 23 1011.0 1011.1 3.4
29/08:30am 10.5 3.5 8.6 88 0.9 WNW 35 44 19 24 1011.1 1011.2 3.4
29/08:22am 10.4 3.4 8.5 88 0.9 WNW 35 54 19 29 1011.1 1011.2 3.4
29/08:00am 10.3 2.6 8.6 89 0.8 W 39 50 21 27 1010.8 1010.9 3.4
29/07:30am 10.4 2.3 8.8 90 0.8 WNW 41 54 22 29 1010.8 1010.9 3.4
29/07:00am 10.6 3.7 9.0 90 0.8 NW 35 48 19 26 1010.8 1010.9 3.2
29/06:45am 10.6 5.1 9.0 90 0.8 NW 28 48 15 26 1010.6 1010.7 3.2
29/06:30am 10.2 4.2 8.5 89 0.8 NW 30 43 16 23 1010.9 1011.0 3.0
29/06:05am 10.7 5.2 9.0 89 0.8 NW 28 46 15 25 1011.0 1011.1 3.0
29/06:00am 10.7 4.4 9.0 89 0.8 WNW 32 43 17 23 1011.0 1011.1 3.0
29/05:30am 10.6 3.3 8.9 89 0.8 WNW 37 44 20 24 1010.9 1011.0 3.0
29/05:00am 10.4 2.7 8.7 89 0.8 WNW 39 48 21 26 1011.1 1011.2 3.0
29/04:31am 9.9 3.4 8.0 88 0.9 WNW 32 50 17 27 1011.1 1011.2 2.8
29/04:30am 9.9 3.2 8.0 88 0.9 WNW 33 50 18 27 1011.1 1011.2 2.8
29/04:00am 10.6 5.3 8.5 87 1.0 WNW 26 39 14 21 1011.4 1011.5 2.6
29/03:30am 10.3 4.2 8.2 87 1.0 WNW 30 39 16 21 1011.5 1011.6 2.6
29/03:00am 10.3 4.3 8.6 89 0.8 WNW 30 44 16 24 1011.9 1012.0 2.6
29/02:30am 9.9 2.8 8.0 88 0.9 W 35 52 19 28 1012.0 1012.1 2.6
29/02:00am 10.1 3.4 8.2 88 0.9 NW 33 46 18 25 1011.9 1012.0 2.2
29/01:30am 10.5 4.4 8.4 87 1.0 NW 30 43 16 23 1012.2 1012.3 2.0
29/01:00am 10.3 2.9 8.4 88 0.9 WNW 37 46 20 25 1012.1 1012.2 2.0
29/12:30am 10.2 3.5 8.1 87 1.0 WNW 33 46 18 25 1012.6 1012.7 1.8
29/12:00am 10.3 3.3 8.4 88 0.9 WNW 35 44 19 24 1012.7 1012.8 1.8
 
Date/Time
EST
Temp
°C
App
Temp
°C
Dew
Point
°C
Rel
Hum
%
Delta-T
°C
Wind Press
QNH
hPa
Press
MSL
hPa
Rain since
9am
mm
Dir  Spd
km/h
Gust
km/h
Spd
kts
Gust
kts
28/11:35pm 10.5 4.1 8.6 88 0.9 WNW 32 54 17 29 1012.8 1012.9 1.8
28/11:30pm 10.6 4.2 8.7 88 0.9 NW 32 44 17 24 1013.0 1013.1 1.8
28/11:00pm 10.4 5.2 8.7 89 0.8 WNW 26 33 14 18 1013.1 1013.2 1.8
28/10:30pm 10.5 4.5 8.8 89 0.8 WNW 30 39 16 21 1013.4 1013.5 1.8
28/10:00pm 10.2 3.8 8.6 90 0.8 WNW 32 41 17 22 1013.7 1013.8 1.6
28/09:30pm 9.9 4.2 8.5 91 0.7 WNW 28 35 15 19 1013.9 1014.0 1.6
28/09:09pm 10.2 4.6 8.6 90 0.8 WNW 28 43 15 23 1014.0 1014.1 1.4
28/09:00pm 10.0 6.0 8.4 90 0.8 NW 19 30 10 16 1014.2 1014.3 1.2
28/08:30pm 9.6 4.2 8.0 90 0.8 WNW 26 39 14 21 1014.4 1014.5 1.2
28/08:00pm 10.1 4.0 8.4 89 0.8 WSW 30 43 16 23 1014.4 1014.5 1.0
28/07:30pm 9.8 5.7 7.9 88 0.9 W 19 32 10 17 1014.6 1014.7 0.8
28/07:00pm 9.7 2.5 7.8 88 0.9 W 35 44 19 24 1014.6 1014.7 0.8
28/06:46pm 10.2 4.5 8.3 88 0.9 W 28 50 15 27 1014.2 1014.3 0.8
28/06:30pm 10.1 4.4 8.2 88 0.9 W 28 37 15 20 1014.5 1014.6 0.8
28/06:00pm 10.3 4.2 8.2 87 1.0 W 30 48 16 26 1013.9 1014.0 0.8
28/05:30pm 10.1 4.3 8.0 87 1.0 W 28 43 15 23 1013.8 1013.9 0.8
28/05:00pm 10.3 2.7 7.7 84 1.2 W 37 54 20 29 1013.6 1013.7 0.6
28/04:56pm 10.7 4.1 7.9 83 1.4 W 32 54 17 29 1013.6 1013.7 0.6
28/04:30pm 11.1 4.6 8.1 82 1.5 WNW 32 43 17 23 1013.7 1013.8 0.6
28/04:00pm 11.0 4.9 8.1 82 1.4 W 30 43 16 23 1013.5 1013.6 0.6
28/03:30pm 10.2 3.6 7.6 84 1.2 W 32 48 17 26 1013.5 1013.6 0.6
28/03:00pm 10.6 3.7 7.3 80 1.6 W 33 44 18 24 1013.5 1013.6 0.6
28/02:30pm 11.7 5.1 8.6 81 1.5 W 33 44 18 24 1013.3 1013.4 0.6
28/02:00pm 10.7 4.0 8.3 85 1.2 W 33 46 18 25 1013.1 1013.2 0.6
28/01:30pm 10.4 2.6 8.3 87 1.0 WSW 39 54 21 29 1013.4 1013.5 0.6
28/01:10pm 11.3 4.8 8.9 85 1.2 W 33 61 18 33 1013.3 1013.4 0.6
28/01:00pm 10.9 4.9 8.5 85 1.2 WNW 30 43 16 23 1013.6 1013.7 0.6
28/12:40pm 11.6 5.3 8.8 83 1.4 WNW 32 50 17 27 1013.8 1013.9 0.6
28/12:30pm 12.1 5.9 9.5 84 1.3 WNW 32 43 17 23 1013.8 1013.9 0.4
28/12:01pm 10.9 4.5 8.7 86 1.1 WNW 32 50 17 27 1013.9 1014.0 0.4
28/12:00pm 10.9 4.3 8.7 86 1.1 WNW 33 50 18 27 1014.0 1014.1 0.4
28/11:50am 11.4 5.5 9.1 86 1.1 W 30 48 16 26 1014.0 1014.1 0.4
28/11:30am 11.5 5.2 9.6 88 1.0 W 33 46 18 25 1014.1 1014.2 0.4
28/11:00am 11.2 4.9 9.1 87 1.0 W 32 43 17 23 1014.2 1014.3 0.4
28/10:33am 10.9 3.2 8.8 87 1.0 W 39 61 21 33 1013.9 1014.0 0.4

Other Formats:

Comma delimited format used in spreadsheet applications
http://www.bom.gov.au/fwo/IDT60801/IDT60801.94974.axf

JavaScript Object Notation format (JSON) in row-major order
http://www.bom.gov.au/fwo/IDT60801/IDT60801.94974.json